sensor_id;sensor_type;location;lat;lon;timestamp;pressure;altitude;pressure_sealevel;temperature;humidity
11912;BME280;6016;41.928;25.556;2022-09-09T00:00:24;99249.66;;;24.01;43.70
11912;BME280;6016;41.928;25.556;2022-09-09T00:02:58;99244.22;;;24.08;43.73
11912;BME280;6016;41.928;25.556;2022-09-09T00:05:34;99252.38;;;24.01;43.84
11912;BME280;6016;41.928;25.556;2022-09-09T00:08:03;99263.75;;;23.84;42.67
11912;BME280;6016;41.928;25.556;2022-09-09T00:10:33;99271.50;;;23.93;43.86
11912;BME280;6016;41.928;25.556;2022-09-09T00:13:06;99277.16;;;23.91;43.32
11912;BME280;6016;41.928;25.556;2022-09-09T00:15:45;99269.41;;;23.76;42.63
11912;BME280;6016;41.928;25.556;2022-09-09T00:18:22;99270.91;;;23.46;43.04
11912;BME280;6016;41.928;25.556;2022-09-09T00:20:58;99145.97;;;22.46;44.37
11912;BME280;6016;41.928;25.556;2022-09-09T00:23:30;99286.72;;;23.36;43.68
11912;BME280;6016;41.928;25.556;2022-09-09T00:26:04;99034.94;;;21.88;44.29
11912;BME280;6016;41.928;25.556;2022-09-09T00:28:39;99131.63;;;22.66;44.18
11912;BME280;6016;41.928;25.556;2022-09-09T00:31:13;99273.88;;;23.64;44.32
11912;BME280;6016;41.928;25.556;2022-09-09T00:33:40;99263.63;;;23.72;43.76
11912;BME280;6016;41.928;25.556;2022-09-09T00:36:13;99257.13;;;23.80;44.05
11912;BME280;6016;41.928;25.556;2022-09-09T00:38:44;99257.44;;;23.91;43.27
11912;BME280;6016;41.928;25.556;2022-09-09T00:41:17;99144.97;;;23.30;43.73
11912;BME280;6016;41.928;25.556;2022-09-09T00:43:53;99269.91;;;24.10;43.29
11912;BME280;6016;41.928;25.556;2022-09-09T00:49:22;99271.16;;;24.26;43.22
11912;BME280;6016;41.928;25.556;2022-09-09T00:52:05;99268.38;;;24.33;43.20
11912;BME280;6016;41.928;25.556;2022-09-09T00:54:43;99254.25;;;24.19;42.98
11912;BME280;6016;41.928;25.556;2022-09-09T00:57:23;99271.97;;;24.45;42.67
11912;BME280;6016;41.928;25.556;2022-09-09T00:59:59;99275.88;;;24.50;42.69
11912;BME280;6016;41.928;25.556;2022-09-09T01:02:36;99274.81;;;24.51;42.78
11912;BME280;6016;41.928;25.556;2022-09-09T01:05:10;99290.84;;;24.45;42.69
11912;BME280;6016;41.928;25.556;2022-09-09T01:07:44;99279.25;;;24.45;42.93
11912;BME280;6016;41.928;25.556;2022-09-09T01:10:23;99278.66;;;24.43;42.51
11912;BME280;6016;41.928;25.556;2022-09-09T01:12:56;99288.53;;;24.49;42.67
11912;BME280;6016;41.928;25.556;2022-09-09T01:15:27;99292.56;;;24.58;42.70
11912;BME280;6016;41.928;25.556;2022-09-09T01:18:00;99293.16;;;24.61;41.96
11912;BME280;6016;41.928;25.556;2022-09-09T01:20:32;99137.19;;;23.59;42.08
11912;BME280;6016;41.928;25.556;2022-09-09T01:23:25;99295.72;;;24.55;41.57
11912;BME280;6016;41.928;25.556;2022-09-09T01:26:17;99299.25;;;24.37;42.84
11912;BME280;6016;41.928;25.556;2022-09-09T01:28:47;99301.78;;;24.32;42.88
11912;BME280;6016;41.928;25.556;2022-09-09T01:31:19;99257.91;;;24.06;42.83
11912;BME280;6016;41.928;25.556;2022-09-09T01:33:46;99301.38;;;24.35;42.82
11912;BME280;6016;41.928;25.556;2022-09-09T01:36:19;99258.47;;;24.15;42.56
11912;BME280;6016;41.928;25.556;2022-09-09T01:38:48;99289.00;;;24.46;42.68
11912;BME280;6016;41.928;25.556;2022-09-09T01:41:16;99297.44;;;24.50;42.65
11912;BME280;6016;41.928;25.556;2022-09-09T01:43:43;99294.75;;;24.50;42.69
11912;BME280;6016;41.928;25.556;2022-09-09T01:46:11;99287.72;;;24.49;42.74
11912;BME280;6016;41.928;25.556;2022-09-09T01:48:39;99292.91;;;24.32;42.53
11912;BME280;6016;41.928;25.556;2022-09-09T01:51:07;99289.44;;;24.24;43.26
11912;BME280;6016;41.928;25.556;2022-09-09T01:53:35;99274.31;;;24.23;43.32
11912;BME280;6016;41.928;25.556;2022-09-09T01:56:09;99285.56;;;24.20;43.27
11912;BME280;6016;41.928;25.556;2022-09-09T01:58:55;99261.25;;;24.01;43.15
11912;BME280;6016;41.928;25.556;2022-09-09T02:01:28;99296.94;;;24.22;42.76
11912;BME280;6016;41.928;25.556;2022-09-09T02:04:02;99272.63;;;24.10;42.91
11912;BME280;6016;41.928;25.556;2022-09-09T02:06:33;99293.88;;;24.19;42.98
11912;BME280;6016;41.928;25.556;2022-09-09T02:09:04;99298.81;;;24.22;42.89
11912;BME280;6016;41.928;25.556;2022-09-09T02:11:32;99300.09;;;24.19;42.92
11912;BME280;6016;41.928;25.556;2022-09-09T02:14:05;99305.69;;;24.17;42.90
11912;BME280;6016;41.928;25.556;2022-09-09T02:16:38;99297.28;;;24.07;43.06
11912;BME280;6016;41.928;25.556;2022-09-09T02:19:08;99289.03;;;23.83;43.15
11912;BME280;6016;41.928;25.556;2022-09-09T02:21:38;99292.94;;;23.87;43.74
11912;BME280;6016;41.928;25.556;2022-09-09T02:24:07;99296.22;;;23.89;43.33
11912;BME280;6016;41.928;25.556;2022-09-09T02:26:39;99233.81;;;23.49;43.14
11912;BME280;6016;41.928;25.556;2022-09-09T02:29:13;99081.78;;;22.63;43.32
11912;BME280;6016;41.928;25.556;2022-09-09T02:31:42;99289.78;;;23.91;43.30
11912;BME280;6016;41.928;25.556;2022-09-09T02:34:11;99287.31;;;23.89;43.36
11912;BME280;6016;41.928;25.556;2022-09-09T02:36:40;99256.53;;;23.59;43.94
11912;BME280;6016;41.928;25.556;2022-09-09T02:39:09;99277.16;;;23.91;43.25
11912;BME280;6016;41.928;25.556;2022-09-09T02:41:38;99080.59;;;22.59;43.31
11912;BME280;6016;41.928;25.556;2022-09-09T02:44:09;99267.31;;;23.78;43.31
11912;BME280;6016;41.928;25.556;2022-09-09T02:46:48;99263.94;;;23.83;43.33
11912;BME280;6016;41.928;25.556;2022-09-09T02:49:25;99272.41;;;23.86;43.11
11912;BME280;6016;41.928;25.556;2022-09-09T02:52:00;99279.91;;;23.84;43.14
11912;BME280;6016;41.928;25.556;2022-09-09T02:54:30;99262.00;;;23.71;43.25
11912;BME280;6016;41.928;25.556;2022-09-09T02:57:03;99271.72;;;23.72;43.58
11912;BME280;6016;41.928;25.556;2022-09-09T02:59:34;99260.53;;;23.50;43.97
11912;BME280;6016;41.928;25.556;2022-09-09T03:02:01;99270.97;;;23.65;43.82
11912;BME280;6016;41.928;25.556;2022-09-09T03:04:29;99267.06;;;23.61;43.59
11912;BME280;6016;41.928;25.556;2022-09-09T03:06:57;99263.97;;;23.57;44.12
11912;BME280;6016;41.928;25.556;2022-09-09T03:09:24;99268.34;;;23.58;43.93
11912;BME280;6016;41.928;25.556;2022-09-09T03:11:51;99222.97;;;23.37;44.23
11912;BME280;6016;41.928;25.556;2022-09-09T03:14:20;99265.34;;;23.67;44.28
11912;BME280;6016;41.928;25.556;2022-09-09T03:16:51;99262.81;;;23.72;44.09
11912;BME280;6016;41.928;25.556;2022-09-09T03:19:18;99226.56;;;23.49;44.26
11912;BME280;6016;41.928;25.556;2022-09-09T03:21:45;99035.06;;;22.32;44.03
11912;BME280;6016;41.928;25.556;2022-09-09T03:24:12;99266.34;;;23.72;44.08
11912;BME280;6016;41.928;25.556;2022-09-09T03:26:39;99268.97;;;23.79;43.92
11912;BME280;6016;41.928;25.556;2022-09-09T03:29:07;99268.97;;;23.79;43.79
11912;BME280;6016;41.928;25.556;2022-09-09T03:31:34;99185.72;;;23.34;44.10
11912;BME280;6016;41.928;25.556;2022-09-09T03:34:02;99240.50;;;23.65;44.27
11912;BME280;6016;41.928;25.556;2022-09-09T03:36:29;99263.03;;;23.70;44.23
11912;BME280;6016;41.928;25.556;2022-09-09T03:38:56;99244.97;;;23.52;44.60
11912;BME280;6016;41.928;25.556;2022-09-09T03:41:23;99263.69;;;23.66;44.18
11912;BME280;6016;41.928;25.556;2022-09-09T03:43:50;99246.63;;;23.53;44.51
11912;BME280;6016;41.928;25.556;2022-09-09T03:46:17;99275.97;;;23.62;44.38
11912;BME280;6016;41.928;25.556;2022-09-09T03:48:44;99278.22;;;23.65;44.47
11912;BME280;6016;41.928;25.556;2022-09-09T03:51:12;99288.78;;;23.66;44.37
11912;BME280;6016;41.928;25.556;2022-09-09T03:53:41;99261.13;;;23.52;44.38
11912;BME280;6016;41.928;25.556;2022-09-09T03:56:08;99281.97;;;23.64;44.29
11912;BME280;6016;41.928;25.556;2022-09-09T03:58:36;99274.53;;;23.59;44.79
11912;BME280;6016;41.928;25.556;2022-09-09T04:01:05;99284.31;;;23.53;44.71
11912;BME280;6016;41.928;25.556;2022-09-09T04:03:33;99287.63;;;23.55;44.96
11912;BME280;6016;41.928;25.556;2022-09-09T04:06:01;99279.66;;;23.42;44.44
11912;BME280;6016;41.928;25.556;2022-09-09T04:08:30;99250.03;;;23.42;44.53
11912;BME280;6016;41.928;25.556;2022-09-09T04:10:58;99275.78;;;23.56;44.36
11912;BME280;6016;41.928;25.556;2022-09-09T04:13:27;99286.97;;;23.60;44.69
11912;BME280;6016;41.928;25.556;2022-09-09T04:15:55;99240.59;;;23.26;44.76
11912;BME280;6016;41.928;25.556;2022-09-09T04:18:22;99294.28;;;23.53;45.29
11912;BME280;6016;41.928;25.556;2022-09-09T04:20:51;99298.03;;;23.52;45.53
11912;BME280;6016;41.928;25.556;2022-09-09T04:23:18;99300.09;;;23.50;45.82
11912;BME280;6016;41.928;25.556;2022-09-09T04:25:48;99274.97;;;23.30;46.16
11912;BME280;6016;41.928;25.556;2022-09-09T04:28:15;99299.66;;;23.53;46.09
11912;BME280;6016;41.928;25.556;2022-09-09T04:30:43;99303.78;;;23.55;45.87
11912;BME280;6016;41.928;25.556;2022-09-09T04:33:11;99309.00;;;23.50;45.70
11912;BME280;6016;41.928;25.556;2022-09-09T04:35:38;99267.75;;;23.24;45.87
11912;BME280;6016;41.928;25.556;2022-09-09T04:38:06;99317.78;;;23.39;45.59
11912;BME280;6016;41.928;25.556;2022-09-09T04:40:35;99308.78;;;23.52;45.64
11912;BME280;6016;41.928;25.556;2022-09-09T04:43:03;99280.44;;;23.49;45.03
11912;BME280;6016;41.928;25.556;2022-09-09T04:45:30;99308.06;;;23.63;45.32
11912;BME280;6016;41.928;25.556;2022-09-09T04:47:57;99308.34;;;23.55;45.64
11912;BME280;6016;41.928;25.556;2022-09-09T04:50:24;99319.38;;;23.46;45.62
11912;BME280;6016;41.928;25.556;2022-09-09T04:52:51;99317.28;;;23.49;45.63
11912;BME280;6016;41.928;25.556;2022-09-09T04:55:18;99312.56;;;23.44;45.84
11912;BME280;6016;41.928;25.556;2022-09-09T04:57:45;99316.25;;;23.50;45.59
11912;BME280;6016;41.928;25.556;2022-09-09T05:00:14;99305.81;;;23.35;45.45
11912;BME280;6016;41.928;25.556;2022-09-09T05:02:42;99322.47;;;23.50;45.46
11912;BME280;6016;41.928;25.556;2022-09-09T05:05:09;99320.97;;;23.54;45.27
11912;BME280;6016;41.928;25.556;2022-09-09T05:07:36;99314.34;;;23.57;45.38
11912;BME280;6016;41.928;25.556;2022-09-09T05:10:04;99305.66;;;23.55;45.40
11912;BME280;6016;41.928;25.556;2022-09-09T05:12:31;99306.91;;;23.52;45.63
11912;BME280;6016;41.928;25.556;2022-09-09T05:14:58;99296.50;;;23.30;45.67
11912;BME280;6016;41.928;25.556;2022-09-09T05:17:26;99242.84;;;23.03;46.19
11912;BME280;6016;41.928;25.556;2022-09-09T05:19:53;99303.72;;;23.37;46.26
11912;BME280;6016;41.928;25.556;2022-09-09T05:22:20;99282.25;;;23.23;46.31
11912;BME280;6016;41.928;25.556;2022-09-09T05:24:48;99284.50;;;23.33;46.34
11912;BME280;6016;41.928;25.556;2022-09-09T05:27:16;99271.94;;;23.20;46.79
11912;BME280;6016;41.928;25.556;2022-09-09T05:29:43;99282.25;;;23.23;46.33
11912;BME280;6016;41.928;25.556;2022-09-09T05:32:10;99315.50;;;23.42;46.94
11912;BME280;6016;41.928;25.556;2022-09-09T05:34:38;99318.34;;;23.48;47.00
11912;BME280;6016;41.928;25.556;2022-09-09T05:37:05;99307.34;;;23.49;47.17
11912;BME280;6016;41.928;25.556;2022-09-09T05:39:33;99300.03;;;23.56;46.83
11912;BME280;6016;41.928;25.556;2022-09-09T05:42:01;99303.16;;;23.53;47.19
11912;BME280;6016;41.928;25.556;2022-09-09T05:44:30;99300.03;;;23.56;47.15
11912;BME280;6016;41.928;25.556;2022-09-09T05:46:57;99263.03;;;23.19;47.08
11912;BME280;6016;41.928;25.556;2022-09-09T05:49:24;99308.50;;;23.60;47.33
11912;BME280;6016;41.928;25.556;2022-09-09T05:51:52;99315.13;;;23.64;47.37
11912;BME280;6016;41.928;25.556;2022-09-09T05:54:19;99305.53;;;23.68;47.23
11912;BME280;6016;41.928;25.556;2022-09-09T05:56:46;99311.06;;;23.73;47.28
11912;BME280;6016;41.928;25.556;2022-09-09T05:59:15;99305.16;;;23.65;47.70
11912;BME280;6016;41.928;25.556;2022-09-09T06:01:41;99311.38;;;23.65;47.43
11912;BME280;6016;41.928;25.556;2022-09-09T06:04:10;99289.16;;;23.44;47.67
11912;BME280;6016;41.928;25.556;2022-09-09T06:06:37;99298.63;;;23.54;47.66
11912;BME280;6016;41.928;25.556;2022-09-09T06:09:08;99310.03;;;23.74;47.75
11912;BME280;6016;41.928;25.556;2022-09-09T06:11:37;99283.81;;;23.63;47.35
11912;BME280;6016;41.928;25.556;2022-09-09T06:14:05;99310.94;;;23.87;47.71
11912;BME280;6016;41.928;25.556;2022-09-09T06:16:32;99325.41;;;23.93;47.48
11912;BME280;6016;41.928;25.556;2022-09-09T06:18:59;99314.69;;;23.86;47.61
11912;BME280;6016;41.928;25.556;2022-09-09T06:21:29;99301.78;;;23.69;47.79
11912;BME280;6016;41.928;25.556;2022-09-09T06:23:58;99294.59;;;23.63;47.96
11912;BME280;6016;41.928;25.556;2022-09-09T06:26:29;99327.19;;;23.80;47.92
11912;BME280;6016;41.928;25.556;2022-09-09T06:28:57;99324.66;;;23.85;47.61
11912;BME280;6016;41.928;25.556;2022-09-09T06:31:25;99324.59;;;23.92;47.28
11912;BME280;6016;41.928;25.556;2022-09-09T06:33:56;99317.03;;;24.01;47.26
11912;BME280;6016;41.928;25.556;2022-09-09T06:36:24;99303.25;;;23.91;47.48
11912;BME280;6016;41.928;25.556;2022-09-09T06:38:52;99306.44;;;24.06;47.47
11912;BME280;6016;41.928;25.556;2022-09-09T06:41:20;99261.84;;;23.85;47.31
11912;BME280;6016;41.928;25.556;2022-09-09T06:43:49;99319.25;;;24.11;47.35
11912;BME280;6016;41.928;25.556;2022-09-09T06:46:17;99297.13;;;24.02;47.55
11912;BME280;6016;41.928;25.556;2022-09-09T06:48:45;99284.50;;;24.02;46.89
11912;BME280;6016;41.928;25.556;2022-09-09T06:51:13;99306.59;;;24.30;47.05
11912;BME280;6016;41.928;25.556;2022-09-09T06:53:42;99293.88;;;24.37;46.59
11912;BME280;6016;41.928;25.556;2022-09-09T06:56:21;99269.09;;;24.28;46.13
11912;BME280;6016;41.928;25.556;2022-09-09T06:58:59;99304.91;;;24.66;46.98
11912;BME280;6016;41.928;25.556;2022-09-09T07:01:27;99278.19;;;24.46;46.62
11912;BME280;6016;41.928;25.556;2022-09-09T07:03:56;99303.69;;;24.99;46.27
11912;BME280;6016;41.928;25.556;2022-09-09T07:06:25;99281.59;;;25.93;43.95
11912;BME280;6016;41.928;25.556;2022-09-09T07:08:53;99276.53;;;26.90;41.54
11912;BME280;6016;41.928;25.556;2022-09-09T07:11:31;99303.84;;;28.08;39.03
11912;BME280;6016;41.928;25.556;2022-09-09T07:14:00;99302.06;;;28.59;38.25
11912;BME280;6016;41.928;25.556;2022-09-09T07:16:27;99304.69;;;28.76;37.54
11912;BME280;6016;41.928;25.556;2022-09-09T07:18:54;99274.81;;;28.48;38.58
11912;BME280;6016;41.928;25.556;2022-09-09T07:21:23;99295.34;;;28.67;38.18
11912;BME280;6016;41.928;25.556;2022-09-09T07:23:52;99293.03;;;28.81;37.99
11912;BME280;6016;41.928;25.556;2022-09-09T07:26:20;99297.38;;;29.04;37.51
11912;BME280;6016;41.928;25.556;2022-09-09T07:28:48;99276.78;;;29.08;36.89
11912;BME280;6016;41.928;25.556;2022-09-09T07:31:17;99302.66;;;29.16;37.47
11912;BME280;6016;41.928;25.556;2022-09-09T07:33:46;99271.59;;;28.79;37.97
11912;BME280;6016;41.928;25.556;2022-09-09T07:36:15;99287.41;;;28.60;38.49
11912;BME280;6016;41.928;25.556;2022-09-09T07:38:44;99302.81;;;28.54;38.58
11912;BME280;6016;41.928;25.556;2022-09-09T07:41:14;99301.63;;;28.45;39.04
11912;BME280;6016;41.928;25.556;2022-09-09T07:43:42;99313.50;;;28.39;39.60
11912;BME280;6016;41.928;25.556;2022-09-09T07:46:11;99313.94;;;28.30;39.79
11912;BME280;6016;41.928;25.556;2022-09-09T07:48:43;99318.72;;;28.23;38.68
11912;BME280;6016;41.928;25.556;2022-09-09T07:51:14;99316.34;;;28.09;40.39
11912;BME280;6016;41.928;25.556;2022-09-09T07:53:43;99278.00;;;27.61;39.85
11912;BME280;6016;41.928;25.556;2022-09-09T07:56:12;99326.75;;;27.78;40.24
11912;BME280;6016;41.928;25.556;2022-09-09T07:58:40;99316.91;;;27.72;41.38
11912;BME280;6016;41.928;25.556;2022-09-09T08:01:08;99258.19;;;27.27;40.95
11912;BME280;6016;41.928;25.556;2022-09-09T08:03:36;99307.72;;;27.56;40.54
11912;BME280;6016;41.928;25.556;2022-09-09T08:06:05;99326.84;;;27.66;40.68
11912;BME280;6016;41.928;25.556;2022-09-09T08:08:33;99325.38;;;27.59;41.50
11912;BME280;6016;41.928;25.556;2022-09-09T08:11:03;99172.00;;;26.72;41.32
11912;BME280;6016;41.928;25.556;2022-09-09T08:13:30;99304.59;;;27.64;40.67
11912;BME280;6016;41.928;25.556;2022-09-09T08:16:05;99284.66;;;27.54;41.10
11912;BME280;6016;41.928;25.556;2022-09-09T08:18:32;99296.72;;;27.63;41.75
11912;BME280;6016;41.928;25.556;2022-09-09T08:21:09;99288.75;;;27.56;41.88
11912;BME280;6016;41.928;25.556;2022-09-09T08:23:37;99288.41;;;27.52;42.26
11912;BME280;6016;41.928;25.556;2022-09-09T08:26:11;99281.19;;;27.41;41.90
11912;BME280;6016;41.928;25.556;2022-09-09T08:28:38;99279.28;;;27.42;41.84
11912;BME280;6016;41.928;25.556;2022-09-09T08:31:07;99265.88;;;27.52;41.54
11912;BME280;6016;41.928;25.556;2022-09-09T08:33:34;99205.09;;;27.26;41.68
11912;BME280;6016;41.928;25.556;2022-09-09T08:36:04;99268.66;;;27.74;41.07
11912;BME280;6016;41.928;25.556;2022-09-09T08:38:32;99264.13;;;27.80;41.24
11912;BME280;6016;41.928;25.556;2022-09-09T08:41:09;99255.38;;;27.73;41.27
11912;BME280;6016;41.928;25.556;2022-09-09T08:43:41;99252.59;;;27.50;41.61
11912;BME280;6016;41.928;25.556;2022-09-09T08:46:12;99253.41;;;27.68;41.83
11912;BME280;6016;41.928;25.556;2022-09-09T08:48:49;99222.78;;;27.67;41.36
11912;BME280;6016;41.928;25.556;2022-09-09T08:51:24;99246.13;;;27.91;41.99
11912;BME280;6016;41.928;25.556;2022-09-09T08:53:54;99243.75;;;27.94;40.92
11912;BME280;6016;41.928;25.556;2022-09-09T08:56:25;99087.81;;;27.08;41.27
11912;BME280;6016;41.928;25.556;2022-09-09T08:58:54;99241.97;;;28.05;41.62
11912;BME280;6016;41.928;25.556;2022-09-09T09:01:33;99234.16;;;28.09;41.77
11912;BME280;6016;41.928;25.556;2022-09-09T09:04:07;99191.41;;;27.94;41.36
11912;BME280;6016;41.928;25.556;2022-09-09T09:06:47;99231.47;;;28.31;41.73
11912;BME280;6016;41.928;25.556;2022-09-09T09:09:23;99223.38;;;28.36;40.83
11912;BME280;6016;41.928;25.556;2022-09-09T09:11:57;99218.34;;;28.45;40.40
11912;BME280;6016;41.928;25.556;2022-09-09T09:14:28;99157.06;;;28.05;40.23
11912;BME280;6016;41.928;25.556;2022-09-09T09:16:58;99182.63;;;28.31;40.49
11912;BME280;6016;41.928;25.556;2022-09-09T09:19:26;99196.88;;;28.44;39.54
11912;BME280;6016;41.928;25.556;2022-09-09T09:21:59;99135.59;;;28.20;40.06
11912;BME280;6016;41.928;25.556;2022-09-09T09:24:34;99210.94;;;28.68;39.21
11912;BME280;6016;41.928;25.556;2022-09-09T09:27:12;99181.22;;;28.51;39.10
11912;BME280;6016;41.928;25.556;2022-09-09T09:29:40;99158.47;;;28.62;39.15
11912;BME280;6016;41.928;25.556;2022-09-09T09:32:14;99170.94;;;28.86;39.29
11912;BME280;6016;41.928;25.556;2022-09-09T09:34:48;99081.19;;;28.38;38.58
11912;BME280;6016;41.928;25.556;2022-09-09T09:37:25;99183.38;;;29.14;39.08
11912;BME280;6016;41.928;25.556;2022-09-09T09:39:55;99191.63;;;29.30;39.10
11912;BME280;6016;41.928;25.556;2022-09-09T09:42:22;99172.31;;;29.26;39.04
11912;BME280;6016;41.928;25.556;2022-09-09T09:44:49;99156.31;;;29.35;37.52
11912;BME280;6016;41.928;25.556;2022-09-09T09:47:17;99178.28;;;29.71;37.65
11912;BME280;6016;41.928;25.556;2022-09-09T09:49:52;99150.75;;;29.57;35.89
11912;BME280;6016;41.928;25.556;2022-09-09T09:52:23;99183.22;;;29.80;36.25
11912;BME280;6016;41.928;25.556;2022-09-09T09:54:50;99141.06;;;29.72;36.55
11912;BME280;6016;41.928;25.556;2022-09-09T09:57:24;99162.94;;;30.08;36.47
11912;BME280;6016;41.928;25.556;2022-09-09T10:00:02;99169.25;;;30.19;35.32
11912;BME280;6016;41.928;25.556;2022-09-09T10:02:38;99164.91;;;30.34;35.89
11912;BME280;6016;41.928;25.556;2022-09-09T10:05:13;99150.78;;;30.47;35.50
11912;BME280;6016;41.928;25.556;2022-09-09T10:07:40;99148.09;;;30.73;35.29
11912;BME280;6016;41.928;25.556;2022-09-09T10:10:13;99109.16;;;30.67;34.97
11912;BME280;6016;41.928;25.556;2022-09-09T10:12:53;99156.25;;;30.94;33.85
11912;BME280;6016;41.928;25.556;2022-09-09T10:15:33;99147.53;;;30.92;33.18
11912;BME280;6016;41.928;25.556;2022-09-09T10:18:16;99114.88;;;30.66;32.75
11912;BME280;6016;41.928;25.556;2022-09-09T10:20:52;99144.81;;;30.81;34.34
11912;BME280;6016;41.928;25.556;2022-09-09T10:23:33;99143.16;;;31.01;33.85
11912;BME280;6016;41.928;25.556;2022-09-09T10:26:17;99105.59;;;30.82;34.00
11912;BME280;6016;41.928;25.556;2022-09-09T10:29:11;99135.78;;;31.17;33.67
11912;BME280;6016;41.928;25.556;2022-09-09T10:31:52;99130.31;;;31.22;34.08
11912;BME280;6016;41.928;25.556;2022-09-09T10:34:37;99127.59;;;31.27;33.30
11912;BME280;6016;41.928;25.556;2022-09-09T10:37:21;99117.50;;;31.28;33.64
11912;BME280;6016;41.928;25.556;2022-09-09T10:39:59;99119.44;;;31.27;32.90
11912;BME280;6016;41.928;25.556;2022-09-09T10:42:31;99123.22;;;31.37;32.52
11912;BME280;6016;41.928;25.556;2022-09-09T10:45:13;99124.31;;;31.30;32.46
11912;BME280;6016;41.928;25.556;2022-09-09T10:47:53;99117.53;;;31.23;33.68
11912;BME280;6016;41.928;25.556;2022-09-09T10:50:45;99074.22;;;31.11;31.96
11912;BME280;6016;41.928;25.556;2022-09-09T10:53:21;99095.69;;;31.33;32.91
11912;BME280;6016;41.928;25.556;2022-09-09T10:55:53;99095.41;;;31.35;31.94
11912;BME280;6016;41.928;25.556;2022-09-09T10:58:25;99091.03;;;31.34;31.69
11912;BME280;6016;41.928;25.556;2022-09-09T11:00:59;98936.03;;;30.35;32.17
11912;BME280;6016;41.928;25.556;2022-09-09T11:03:28;99081.00;;;31.29;31.62
11912;BME280;6016;41.928;25.556;2022-09-09T11:05:59;99079.84;;;31.40;32.51
11912;BME280;6016;41.928;25.556;2022-09-09T11:08:29;99064.28;;;31.46;32.53
11912;BME280;6016;41.928;25.556;2022-09-09T11:11:00;99053.63;;;31.50;31.19
11912;BME280;6016;41.928;25.556;2022-09-09T11:13:42;99024.81;;;31.33;31.58
11912;BME280;6016;41.928;25.556;2022-09-09T11:16:20;99068.53;;;31.73;32.15
11912;BME280;6016;41.928;25.556;2022-09-09T11:18:49;99073.16;;;31.72;31.47
11912;BME280;6016;41.928;25.556;2022-09-09T11:21:20;99025.31;;;31.46;31.10
11912;BME280;6016;41.928;25.556;2022-09-09T11:23:52;99061.69;;;31.81;32.17
11912;BME280;6016;41.928;25.556;2022-09-09T11:26:28;99056.97;;;31.92;31.19
11912;BME280;6016;41.928;25.556;2022-09-09T11:31:56;99056.84;;;32.12;32.32
11912;BME280;6016;41.928;25.556;2022-09-09T11:34:39;99019.75;;;32.06;31.35
11912;BME280;6016;41.928;25.556;2022-09-09T11:37:23;99042.47;;;32.36;30.87
11912;BME280;6016;41.928;25.556;2022-09-09T11:40:19;99057.09;;;32.51;30.87
11912;BME280;6016;41.928;25.556;2022-09-09T11:42:46;99015.19;;;32.31;31.42
11912;BME280;6016;41.928;25.556;2022-09-09T11:45:24;99052.97;;;32.53;30.57
11912;BME280;6016;41.928;25.556;2022-09-09T11:47:56;99047.50;;;32.53;30.48
11912;BME280;6016;41.928;25.556;2022-09-09T11:50:34;99045.66;;;32.49;30.01
11912;BME280;6016;41.928;25.556;2022-09-09T11:53:22;99045.59;;;32.54;29.96
11912;BME280;6016;41.928;25.556;2022-09-09T11:56:11;99043.56;;;32.65;32.08
11912;BME280;6016;41.928;25.556;2022-09-09T11:58:41;99035.28;;;32.75;30.39
11912;BME280;6016;41.928;25.556;2022-09-09T12:01:25;99024.09;;;32.72;29.86
11912;BME280;6016;41.928;25.556;2022-09-09T12:04:05;99026.31;;;32.69;30.66
11912;BME280;6016;41.928;25.556;2022-09-09T12:06:42;99020.50;;;32.76;31.31
11912;BME280;6016;41.928;25.556;2022-09-09T12:09:18;98940.81;;;32.45;30.36
11912;BME280;6016;41.928;25.556;2022-09-09T12:11:46;99003.41;;;32.90;30.27
11912;BME280;6016;41.928;25.556;2022-09-09T12:14:20;99005.53;;;32.98;30.56
11912;BME280;6016;41.928;25.556;2022-09-09T12:16:48;98955.44;;;32.78;30.56
11912;BME280;6016;41.928;25.556;2022-09-09T12:19:19;98860.16;;;32.28;30.09
11912;BME280;6016;41.928;25.556;2022-09-09T12:21:57;98983.06;;;33.25;30.39
11912;BME280;6016;41.928;25.556;2022-09-09T12:24:34;98946.59;;;33.11;29.12
11912;BME280;6016;41.928;25.556;2022-09-09T12:27:08;98979.41;;;33.30;29.70
11912;BME280;6016;41.928;25.556;2022-09-09T12:29:44;98955.75;;;33.01;30.63
11912;BME280;6016;41.928;25.556;2022-09-09T12:32:22;98980.94;;;32.98;30.07
11912;BME280;6016;41.928;25.556;2022-09-09T12:34:53;98973.03;;;32.96;30.41
11912;BME280;6016;41.928;25.556;2022-09-09T12:37:29;98970.13;;;33.12;30.47
11912;BME280;6016;41.928;25.556;2022-09-09T12:40:03;98934.72;;;33.02;29.74
11912;BME280;6016;41.928;25.556;2022-09-09T12:42:31;98964.66;;;33.31;30.41
11912;BME280;6016;41.928;25.556;2022-09-09T12:45:00;98947.88;;;33.19;29.41
11912;BME280;6016;41.928;25.556;2022-09-09T12:47:38;98956.38;;;33.17;30.34
11912;BME280;6016;41.928;25.556;2022-09-09T12:50:19;98958.13;;;33.08;30.00
11912;BME280;6016;41.928;25.556;2022-09-09T12:52:50;98785.63;;;32.03;30.17
11912;BME280;6016;41.928;25.556;2022-09-09T12:55:20;98931.22;;;32.96;30.44
11912;BME280;6016;41.928;25.556;2022-09-09T12:57:51;98947.44;;;33.11;29.80
11912;BME280;6016;41.928;25.556;2022-09-09T13:00:19;98932.94;;;33.11;29.86
11912;BME280;6016;41.928;25.556;2022-09-09T13:02:51;98886.41;;;32.73;29.64
11912;BME280;6016;41.928;25.556;2022-09-09T13:05:22;98920.38;;;33.10;29.93
11912;BME280;6016;41.928;25.556;2022-09-09T13:07:50;98917.34;;;33.11;29.33
11912;BME280;6016;41.928;25.556;2022-09-09T13:10:23;98893.03;;;32.91;30.49
11912;BME280;6016;41.928;25.556;2022-09-09T13:12:52;98886.41;;;32.97;29.88
11912;BME280;6016;41.928;25.556;2022-09-09T13:15:21;98919.56;;;33.29;30.11
11912;BME280;6016;41.928;25.556;2022-09-09T13:17:54;98905.97;;;33.23;30.20
11912;BME280;6016;41.928;25.556;2022-09-09T13:20:24;98905.69;;;33.25;30.53
11912;BME280;6016;41.928;25.556;2022-09-09T13:22:53;98900.66;;;33.13;30.86
11912;BME280;6016;41.928;25.556;2022-09-09T13:25:24;98903.78;;;33.06;29.81
11912;BME280;6016;41.928;25.556;2022-09-09T13:27:56;98909.38;;;33.15;29.74